Time;durP1;ratioP1;P1;durP2;ratioP2;P2;SDS_P1;SDS_P2;PMS_P1;PMS_P2;Temp;Humidity;BMP_temperature;BMP_pressure;BME280_temperature;BME280_humidity;BME280_pressure;Samples;Min_cycle;Max_cycle;Signal;HPM_P1;HPM_P2
2022/06/21 00:02:18;;;;;;;9.73;2.40;;;;;;;12.23;72.68;99893.97;5103276;28;20153;-73
2022/06/21 00:04:44;;;;;;;10.90;2.90;;;;;;;12.27;73.08;99903.38;5103495;28;20020;-73
2022/06/21 00:07:22;;;;;;;10.23;2.92;;;;;;;12.22;73.00;99896.59;5103406;28;20047;-73
2022/06/21 00:09:48;;;;;;;9.25;3.53;;;;;;;12.20;73.18;99908.78;5103303;28;20035;-75
2022/06/21 00:12:13;;;;;;;11.05;2.50;;;;;;;12.15;73.07;99908.88;5103045;28;20055;-74
2022/06/21 00:14:40;;;;;;;9.70;2.80;;;;;;;12.12;73.04;99907.19;5103153;28;20065;-74
2022/06/21 00:17:05;;;;;;;6.30;2.78;;;;;;;12.16;73.21;99913.19;5103341;28;20023;-73
2022/06/21 00:19:31;;;;;;;11.38;2.85;;;;;;;12.17;73.09;99908.84;5103161;28;20464;-74
2022/06/21 00:21:57;;;;;;;10.77;2.63;;;;;;;12.23;73.23;99912.19;5102942;28;20052;-73
2022/06/21 00:24:22;;;;;;;11.02;2.85;;;;;;;12.28;73.01;99896.44;5103159;28;20028;-72
2022/06/21 00:26:48;;;;;;;13.10;2.90;;;;;;;12.30;72.99;99901.63;5102819;28;20252;-72
2022/06/21 00:29:13;;;;;;;9.70;2.60;;;;;;;12.30;72.99;99906.81;5103267;28;20050;-72
2022/06/21 00:31:44;;;;;;;9.52;2.65;;;;;;;12.31;73.11;99900.72;5103359;28;20388;-73
2022/06/21 00:34:19;;;;;;;9.13;2.15;;;;;;;12.35;73.19;99907.53;5103405;28;20303;-73
2022/06/21 00:36:46;;;;;;;8.13;2.08;;;;;;;12.37;73.60;99903.16;5103036;28;20023;-75
2022/06/21 00:39:14;;;;;;;13.10;2.47;;;;;;;12.41;73.34;99909.16;5103075;28;20024;-72
2022/06/21 00:42:12;;;;;;;10.00;2.65;;;;;;;12.38;72.89;99904.91;5103000;28;20020;-73
2022/06/21 00:45:05;;;;;;;9.05;2.97;;;;;;;12.34;73.19;99901.50;5101715;28;20044;-73
2022/06/21 00:47:41;;;;;;;13.30;3.00;;;;;;;12.29;73.34;99898.16;5107065;28;20050;-73
2022/06/21 00:50:20;;;;;;;9.38;2.55;;;;;;;12.26;73.42;99900.81;5107134;28;20073;-73
2022/06/21 00:52:51;;;;;;;10.18;2.78;;;;;;;12.30;73.63;99899.00;5107221;28;20113;-72
2022/06/21 00:55:29;;;;;;;15.05;3.00;;;;;;;12.28;73.33;99899.06;5106872;28;20027;-73
2022/06/21 00:57:55;;;;;;;10.68;3.03;;;;;;;12.25;74.07;99892.16;5106784;28;20052;-73
2022/06/21 01:00:38;;;;;;;7.82;2.55;;;;;;;12.27;73.96;99897.31;5106681;28;20047;-73
2022/06/21 01:03:14;;;;;;;10.25;2.53;;;;;;;12.30;74.44;99894.66;5106849;28;20537;-72
2022/06/21 01:05:43;;;;;;;8.40;2.60;;;;;;;12.31;74.53;99888.56;5106912;28;20024;-72
2022/06/21 01:08:12;;;;;;;7.93;3.10;;;;;;;12.31;74.78;99891.16;5106637;28;20019;-73
2022/06/21 01:10:40;;;;;;;8.88;3.47;;;;;;;12.27;74.82;99895.59;5106399;28;20059;-72
2022/06/21 01:13:13;;;;;;;9.02;3.05;;;;;;;12.22;74.77;99894.81;5106623;28;20031;-73
2022/06/21 01:15:43;;;;;;;12.98;3.03;;;;;;;12.17;74.79;99888.91;5106483;28;20051;-74
2022/06/21 01:18:10;;;;;;;6.47;2.33;;;;;;;12.13;75.06;99880.31;5106519;28;20016;-74
2022/06/21 01:20:40;;;;;;;7.95;2.38;;;;;;;12.11;75.16;99891.63;5088278;28;20008;-74
2022/06/21 01:23:39;;;;;;;8.48;2.67;;;;;;;12.12;75.41;99881.16;5106565;28;20031;-74
2022/06/21 01:26:26;;;;;;;9.25;3.20;;;;;;;12.12;75.73;99880.34;5106136;28;20024;-73
2022/06/21 01:28:53;;;;;;;11.52;3.22;;;;;;;12.10;75.91;99880.38;5106412;28;20264;-73
2022/06/21 01:31:19;;;;;;;14.10;3.08;;;;;;;12.06;75.88;99881.28;5106287;28;20030;-73
2022/06/21 01:33:44;;;;;;;8.35;2.80;;;;;;;12.06;76.08;99883.88;5106308;28;20024;-73
2022/06/21 01:36:17;;;;;;;9.65;2.88;;;;;;;12.04;76.02;99880.50;5106068;28;20057;-73
2022/06/21 01:38:49;;;;;;;8.98;2.92;;;;;;;12.02;76.20;99879.66;5106008;28;20077;-73
2022/06/21 01:41:20;;;;;;;13.20;3.30;;;;;;;11.97;76.26;99873.69;5105848;28;20024;-72
2022/06/21 01:43:48;;;;;;;10.32;3.25;;;;;;;11.90;76.66;99863.44;5087789;28;20249;-72
2022/06/21 01:46:19;;;;;;;13.70;3.83;;;;;;;11.84;77.03;99860.09;5106038;28;20028;-73
2022/06/21 01:48:51;;;;;;;6.60;3.30;;;;;;;11.85;77.05;99872.25;5105933;28;20043;-74
2022/06/21 01:51:30;;;;;;;11.88;5.30;;;;;;;11.75;77.14;99866.38;5105628;28;20024;-73
2022/06/21 01:53:58;;;;;;;7.35;3.72;;;;;;;11.69;77.46;99858.72;5104416;28;20495;-73
2022/06/21 01:56:28;;;;;;;8.65;4.18;;;;;;;11.58;77.82;99862.41;5105428;28;20278;-73
2022/06/21 01:59:00;;;;;;;11.95;4.32;;;;;;;11.50;77.75;99856.53;5105442;28;20055;-73
2022/06/21 02:01:40;;;;;;;7.53;3.55;;;;;;;11.45;78.03;99859.22;5105753;28;20054;-73
2022/06/21 02:04:08;;;;;;;8.15;3.58;;;;;;;11.37;78.49;99864.56;5105888;28;20108;-73
2022/06/21 02:06:41;;;;;;;9.48;3.10;;;;;;;11.33;78.84;99865.50;5105638;28;20472;-73
2022/06/21 02:09:14;;;;;;;9.77;3.85;;;;;;;11.33;79.21;99862.06;5105642;28;20115;-74
2022/06/21 02:11:47;;;;;;;8.05;3.58;;;;;;;11.31;79.48;99859.47;5105296;28;20063;-73
2022/06/21 02:14:29;;;;;;;9.52;3.83;;;;;;;11.30;79.44;99865.56;5105589;28;20043;-73
2022/06/21 02:17:04;;;;;;;9.23;3.63;;;;;;;11.30;80.01;99860.38;5105294;28;20027;-73
2022/06/21 02:19:35;;;;;;;8.30;3.40;;;;;;;11.27;80.15;99860.44;5087341;28;20249;-73
2022/06/21 02:22:02;;;;;;;9.15;3.83;;;;;;;11.25;80.12;99862.22;5105198;28;20024;-74
2022/06/21 02:24:29;;;;;;;9.00;3.40;;;;;;;11.22;80.17;99857.06;5105558;28;20032;-73
2022/06/21 02:26:56;;;;;;;5.93;3.35;;;;;;;11.22;80.82;99846.69;5104829;28;20044;-73
2022/06/21 02:29:22;;;;;;;8.82;3.75;;;;;;;11.24;80.77;99850.97;5105136;28;20054;-73
2022/06/21 02:31:48;;;;;;;11.15;3.08;;;;;;;11.29;80.93;99840.50;5105107;28;20020;-73
2022/06/21 02:34:24;;;;;;;12.70;3.30;;;;;;;11.33;81.14;99849.06;5105053;28;20019;-73
2022/06/21 02:36:57;;;;;;;7.57;3.45;;;;;;;11.30;81.14;99851.72;5104813;28;20024;-72
2022/06/21 02:39:25;;;;;;;7.25;3.45;;;;;;;11.28;81.38;99856.94;5105009;28;20471;-74
2022/06/21 02:42:01;;;;;;;7.80;4.00;;;;;;;11.20;81.46;99858.88;5104737;28;20051;-75
2022/06/21 02:44:32;;;;;;;10.38;3.30;;;;;;;11.16;81.46;99858.06;5105191;28;20456;-73
2022/06/21 02:47:05;;;;;;;8.57;3.60;;;;;;;11.16;81.50;99852.88;5104827;28;20104;-73
2022/06/21 02:49:39;;;;;;;10.82;4.22;;;;;;;11.13;81.35;99853.75;5105095;28;20660;-73
2022/06/21 02:52:11;;;;;;;10.25;3.55;;;;;;;11.18;81.35;99860.63;5104436;28;20028;-74
2022/06/21 02:55:05;;;;;;;9.93;4.45;;;;;;;11.19;81.17;99863.19;5104823;28;20085;-73
2022/06/21 02:57:44;;;;;;;12.52;4.43;;;;;;;11.18;81.15;99861.50;5072263;28;20545;-73
2022/06/21 03:00:16;;;;;;;8.75;3.55;;;;;;;11.22;81.35;99873.53;5104402;28;20052;-74
2022/06/21 03:02:42;;;;;;;8.50;3.60;;;;;;;11.27;81.46;99868.25;5104861;28;20020;-74
2022/06/21 03:05:17;;;;;;;11.45;3.90;;;;;;;11.38;81.24;99868.03;5104190;28;20066;-74
2022/06/21 03:07:53;;;;;;;8.35;3.38;;;;;;;11.50;81.62;99862.56;5104404;28;20028;-74
2022/06/21 03:10:23;;;;;;;10.80;3.00;;;;;;;11.76;82.07;99868.09;5104273;28;20028;-72
2022/06/21 03:12:58;;;;;;;7.63;2.58;;;;;;;12.13;82.91;99862.09;5104255;28;20024;-74
2022/06/21 03:15:24;;;;;;;7.78;3.13;;;;;;;12.57;83.39;99871.44;5104266;28;20379;-73
2022/06/21 03:17:58;;;;;;;7.82;3.08;;;;;;;12.99;83.59;99865.13;5104141;28;20023;-73
2022/06/21 03:20:24;;;;;;;4.65;2.45;;;;;;;13.52;83.35;99855.00;5104193;28;20073;-72
2022/06/21 03:22:54;;;;;;;7.63;2.42;;;;;;;13.93;82.51;99854.66;5104117;28;20044;-74
2022/06/21 03:25:23;;;;;;;9.65;2.90;;;;;;;14.55;82.27;99862.25;5104071;28;20045;-72
2022/06/21 03:27:56;;;;;;;11.57;2.97;;;;;;;15.07;80.44;99858.75;5103809;28;20103;-74
2022/06/21 03:30:35;;;;;;;5.00;2.15;;;;;;;15.49;78.68;99865.03;5103996;28;20027;-74
2022/06/21 03:33:03;;;;;;;6.38;2.08;;;;;;;15.97;77.50;99865.00;5103879;28;20024;-74
2022/06/21 03:35:33;;;;;;;5.45;2.67;;;;;;;16.39;75.94;99859.84;5103928;28;20050;-74
2022/06/21 03:37:59;;;;;;;7.50;2.25;;;;;;;16.85;73.49;99874.56;5103803;28;20027;-74
2022/06/21 03:43:29;;;;;;;5.25;1.85;;;;;;;17.67;71.60;99864.81;5104127;28;20042;-72
2022/06/21 03:45:58;;;;;;;7.53;1.95;;;;;;;18.05;67.27;99863.06;5103880;28;20448;-73
2022/06/21 03:48:37;;;;;;;8.75;2.30;;;;;;;18.17;66.57;99867.75;5103493;28;20043;-73
2022/06/21 03:51:20;;;;;;;5.40;2.03;;;;;;;18.30;65.54;99861.88;5103784;28;20058;-74
2022/06/21 03:53:51;;;;;;;7.70;2.50;;;;;;;18.51;64.58;99867.00;5103684;28;20020;-73
2022/06/21 03:56:22;;;;;;;7.15;2.00;;;;;;;18.72;63.82;99869.44;5103654;28;20019;-72
2022/06/21 03:59:08;;;;;;;9.73;2.58;;;;;;;19.01;62.57;99873.19;5103063;28;20059;-73
2022/06/21 04:01:41;;;;;;;10.45;2.85;;;;;;;19.13;61.07;99868.25;5085486;28;20141;-73
2022/06/21 04:04:51;;;;;;;7.95;2.33;;;;;;;19.45;61.16;99865.66;5103619;28;20016;-73
2022/06/21 04:07:27;;;;;;;7.35;2.25;;;;;;;19.90;59.84;99870.25;5082357;28;20095;-74
2022/06/21 04:10:01;;;;;;;9.52;2.22;;;;;;;20.14;58.27;99867.19;5103569;28;20154;-74
2022/06/21 04:12:34;;;;;;;7.85;2.35;;;;;;;20.37;58.28;99867.63;5103183;28;20032;-74
2022/06/21 04:15:11;;;;;;;8.55;2.20;;;;;;;20.70;57.34;99871.00;5103470;28;20024;-74
2022/06/21 04:17:43;;;;;;;10.05;2.25;;;;;;;21.04;55.81;99874.25;5102352;28;20031;-74
2022/06/21 04:20:26;;;;;;;8.43;2.10;;;;;;;21.35;55.27;99874.16;5084905;28;20046;-74
2022/06/21 04:23:07;;;;;;;10.40;2.35;;;;;;;21.87;54.11;99863.91;5103357;28;20016;-75
2022/06/21 04:25:44;;;;;;;8.38;2.50;;;;;;;22.22;53.25;99865.19;5103190;28;20023;-74
2022/06/21 04:28:23;;;;;;;10.55;2.50;;;;;;;22.46;51.58;99875.06;5103211;28;20032;-74
2022/06/21 04:30:59;;;;;;;13.02;2.47;;;;;;;22.45;51.20;99868.06;5103286;28;20589;-74
2022/06/21 04:33:31;;;;;;;6.65;2.05;;;;;;;22.69;50.75;99884.13;5084920;28;20081;-74
2022/06/21 04:35:59;;;;;;;7.72;2.20;;;;;;;22.84;49.51;99873.44;5103102;28;20028;-73
2022/06/21 04:38:31;;;;;;;7.18;2.30;;;;;;;22.96;49.15;99883.19;5103296;28;20043;-73
2022/06/21 04:41:06;;;;;;;12.05;2.53;;;;;;;23.12;48.74;99882.97;5103038;28;20028;-74
2022/06/21 04:43:59;;;;;;;7.10;2.15;;;;;;;23.16;48.59;99873.00;5103474;28;20088;-74
2022/06/21 04:46:39;;;;;;;7.32;2.40;;;;;;;23.28;48.43;99871.28;5103052;28;20020;-74
2022/06/21 04:49:04;;;;;;;7.22;2.25;;;;;;;23.56;47.98;99876.44;5103138;28;20020;-74
2022/06/21 04:51:42;;;;;;;11.25;2.78;;;;;;;23.85;47.38;99874.31;5102858;28;20032;-74
2022/06/21 04:54:24;;;;;;;8.88;2.47;;;;;;;24.19;46.72;99878.09;5102952;28;20075;-72
2022/06/21 04:56:50;;;;;;;;;;;;;;;24.51;46.31;99865.09;5103097;28;20028;-71
2022/06/21 04:59:24;;;;;;;8.80;2.67;;;;;;;24.42;46.12;99871.09;5102533;28;19981;-74
2022/06/21 05:01:49;;;;;;;8.02;2.53;;;;;;;24.50;45.61;99868.72;5102711;28;20032;-73
2022/06/21 05:04:24;;;;;;;11.20;2.50;;;;;;;24.63;45.57;99870.44;5084340;28;20031;-74
2022/06/21 05:06:51;;;;;;;7.82;2.00;;;;;;;24.98;44.78;99874.00;5102914;28;20028;-76
2022/06/21 05:09:20;;;;;;;8.40;3.03;;;;;;;25.38;43.57;99872.66;5084526;28;20356;-69
2022/06/21 05:11:48;;;;;;;10.93;2.63;;;;;;;25.52;43.25;99876.00;5084208;28;20020;-69
2022/06/21 05:14:23;;;;;;;13.30;3.45;;;;;;;25.84;43.22;99880.56;5102722;28;20046;-70
2022/06/21 05:16:50;;;;;;;12.98;3.20;;;;;;;26.17;42.24;99884.06;5102868;28;20024;-74
2022/06/21 05:19:27;;;;;;;10.93;2.65;;;;;;;26.96;41.67;99881.09;5102911;28;20023;-67
2022/06/21 05:22:12;;;;;;;9.02;2.55;;;;;;;27.55;40.12;99870.66;5102902;28;20061;-70
2022/06/21 05:24:38;;;;;;;10.27;2.47;;;;;;;28.07;39.02;99882.94;5103199;28;20016;-73
2022/06/21 05:27:06;;;;;;;10.18;2.35;;;;;;;28.61;38.27;99880.81;5102395;28;20046;-70
2022/06/21 05:29:36;;;;;;;10.82;2.20;;;;;;;28.99;37.34;99879.06;5105432;28;20032;-64
2022/06/21 05:32:07;;;;;;;9.05;2.10;;;;;;;29.25;36.12;99882.88;5106391;28;20016;-67
2022/06/21 05:34:38;;;;;;;10.93;2.40;;;;;;;29.64;35.52;99888.03;5106649;28;20030;-64
2022/06/21 05:37:18;;;;;;;14.02;3.25;;;;;;;29.89;34.06;99895.47;5106465;28;20078;-65
2022/06/21 05:39:48;;;;;;;12.80;2.75;;;;;;;29.87;33.97;99905.47;5106490;28;20027;-69
2022/06/21 05:42:16;;;;;;;15.82;3.42;;;;;;;29.17;34.16;99897.81;5106138;28;20020;-69
2022/06/21 05:44:54;;;;;;;16.33;2.80;;;;;;;27.39;35.32;99889.84;5105923;28;20024;-73
2022/06/21 05:47:31;;;;;;;17.08;3.90;;;;;;;26.67;37.89;99893.28;5105901;28;20051;-75
2022/06/21 05:49:57;;;;;;;13.43;3.05;;;;;;;26.94;38.31;99899.88;5105562;28;20020;-75
2022/06/21 05:52:32;;;;;;;8.60;2.45;;;;;;;27.24;37.19;99891.19;5106069;28;20074;-76
2022/06/21 05:55:03;;;;;;;13.85;2.80;;;;;;;27.37;36.99;99902.44;5105916;28;20031;-77
2022/06/21 05:57:39;;;;;;;12.65;3.10;;;;;;;27.49;36.75;99899.69;5105399;28;20047;-77
2022/06/21 06:00:10;;;;;;;7.25;2.17;;;;;;;27.47;36.38;99903.34;5105402;28;20492;-77
2022/06/21 06:02:44;;;;;;;11.27;2.80;;;;;;;27.24;36.58;99896.53;5105271;28;20028;-77
2022/06/21 06:05:32;;;;;;;8.55;2.65;;;;;;;26.87;37.43;99906.66;5105782;28;20037;-77
2022/06/21 06:08:29;;;;;;;15.88;3.50;;;;;;;27.19;37.44;99905.75;5087528;28;20134;-77
2022/06/21 06:10:56;;;;;;;10.82;3.25;;;;;;;27.64;36.90;99908.13;5099296;28;20043;-75
2022/06/21 06:13:27;;;;;;;13.07;2.78;;;;;;;27.86;36.38;99912.41;5105596;28;20027;-76
2022/06/21 06:15:56;;;;;;;;;;;;;;;28.00;35.68;99908.50;5105975;28;20471;-76
2022/06/21 06:18:28;;;;;;;12.27;2.83;;;;;;;27.58;35.48;99909.53;5087029;28;19908;-75
2022/06/21 06:20:54;;;;;;;11.57;2.38;;;;;;;27.16;36.09;99918.47;5105403;28;20105;-75
2022/06/21 06:23:40;;;;;;;12.93;3.15;;;;;;;26.78;37.01;99920.78;5105384;28;20646;-75
2022/06/21 06:26:10;;;;;;;10.43;2.42;;;;;;;26.69;37.46;99920.63;5104456;28;20032;-75
2022/06/21 06:28:39;;;;;;;9.10;3.00;;;;;;;26.79;37.82;99920.66;5086860;28;20027;-74
2022/06/21 06:31:21;;;;;;;8.93;2.58;;;;;;;26.96;36.94;99927.22;5086928;28;20043;-75
2022/06/21 06:34:09;;;;;;;11.20;2.60;;;;;;;26.98;36.90;99925.25;5105351;28;20059;-75
2022/06/21 06:36:38;;;;;;;7.78;2.58;;;;;;;26.92;36.75;99928.44;5105056;28;20035;-76
2022/06/21 06:39:22;;;;;;;11.68;3.47;;;;;;;26.48;36.62;99942.75;5105029;28;20020;-75
2022/06/21 06:41:56;;;;;;;17.83;3.80;;;;;;;25.61;37.97;99947.91;5104276;28;20046;-76
2022/06/21 06:44:24;;;;;;;12.60;3.67;;;;;;;25.18;39.02;99946.78;5105026;28;20016;-75
2022/06/21 06:46:51;;;;;;;14.93;3.40;;;;;;;24.99;39.92;99940.25;5105036;28;20026;-75
2022/06/21 06:49:22;;;;;;;11.85;3.60;;;;;;;24.90;39.64;99954.22;5104954;28;20031;-75
2022/06/21 06:52:00;;;;;;;15.82;3.65;;;;;;;24.42;40.09;99956.00;5104946;28;20138;-73
2022/06/21 06:54:38;;;;;;;11.13;3.22;;;;;;;24.21;40.75;99959.25;5104868;28;20023;-77
2022/06/21 06:57:06;;;;;;;10.07;2.90;;;;;;;24.09;41.24;99954.84;5104277;28;20034;-73
2022/06/21 06:59:31;;;;;;;11.73;3.10;;;;;;;24.23;41.13;99956.50;5086478;28;20074;-73
2022/06/21 07:02:03;;;;;;;11.35;2.90;;;;;;;24.61;40.55;99959.91;5104659;28;20024;-69
2022/06/21 07:04:35;;;;;;;11.27;3.22;;;;;;;24.81;39.47;99961.03;5104551;28;20043;-73
2022/06/21 07:07:13;;;;;;;8.40;3.13;;;;;;;24.86;39.28;99966.00;5104538;28;20032;-73
2022/06/21 07:09:50;;;;;;;10.02;2.53;;;;;;;25.19;39.06;99959.09;5104784;28;20016;-74
2022/06/21 07:12:21;;;;;;;9.43;2.95;;;;;;;25.72;38.71;99962.16;5104175;28;20031;-74
2022/06/21 07:14:48;;;;;;;13.43;3.20;;;;;;;26.17;38.29;99955.03;5104669;28;20526;-74
2022/06/21 07:17:36;;;;;;;10.13;2.90;;;;;;;26.42;37.46;99969.84;5104424;28;20286;-75
2022/06/21 07:20:02;;;;;;;16.02;2.92;;;;;;;26.33;37.38;99965.28;5104511;28;20016;-74
2022/06/21 07:22:34;;;;;;;10.68;3.40;;;;;;;26.21;37.60;99970.63;5104505;28;20020;-74
2022/06/21 07:25:27;;;;;;;13.40;3.55;;;;;;;25.88;37.02;99968.91;5104752;28;20058;-74
2022/06/21 07:27:57;;;;;;;14.88;3.40;;;;;;;25.16;38.42;99958.50;5104034;28;20054;-74
2022/06/21 07:30:28;;;;;;;13.30;3.45;;;;;;;24.75;39.22;99969.47;5104354;28;20053;-73
2022/06/21 07:32:58;;;;;;;12.10;3.47;;;;;;;24.73;40.00;99964.28;5105011;28;20020;-73
2022/06/21 07:35:31;;;;;;;12.63;3.15;;;;;;;24.93;39.52;99969.06;5104450;28;20047;-73
2022/06/21 07:38:04;;;;;;;8.98;2.88;;;;;;;25.03;39.80;99970.06;5103626;28;20464;-73
2022/06/21 07:40:38;;;;;;;9.80;3.33;;;;;;;25.48;39.33;99981.72;5103679;28;20483;-74
2022/06/21 07:43:11;;;;;;;12.93;3.13;;;;;;;25.66;38.03;99976.75;5103809;28;20039;-74
2022/06/21 07:45:44;;;;;;;10.18;3.17;;;;;;;25.79;37.63;99973.97;5104076;28;20051;-74
2022/06/21 07:48:13;;;;;;;21.73;3.55;;;;;;;26.04;37.44;99974.66;5085520;28;20032;-74
2022/06/21 07:50:51;;;;;;;11.68;2.97;;;;;;;25.92;37.21;99984.47;5104018;28;20020;-74
2022/06/21 07:53:42;;;;;;;11.57;3.63;;;;;;;25.90;37.48;99981.09;5103818;28;20028;-74
2022/06/21 07:56:12;;;;;;;15.13;3.05;;;;;;;25.81;37.30;99985.34;5089004;28;20065;-73
2022/06/21 07:58:43;;;;;;;10.45;2.85;;;;;;;26.24;37.57;99981.03;5103540;28;20016;-73
2022/06/21 08:07:05;;;;;;;18.00;3.58;;;;;;;27.01;35.18;99992.59;5103538;28;20038;-76
2022/06/21 08:09:38;;;;;;;10.73;2.97;;;;;;;26.86;35.18;99979.56;5103768;28;20122;-74
2022/06/21 08:12:03;;;;;;;12.70;3.20;;;;;;;26.67;34.93;99994.44;5103455;28;20039;-74
2022/06/21 08:14:32;;;;;;;11.10;3.22;;;;;;;26.29;35.03;99998.41;5103669;28;20019;-73
2022/06/21 08:17:12;;;;;;;11.27;3.05;;;;;;;26.27;35.76;99987.03;5103571;28;20032;-74
2022/06/21 08:19:46;;;;;;;14.25;3.45;;;;;;;26.11;35.93;99988.28;5103577;28;20024;-75
2022/06/21 08:22:12;;;;;;;11.43;3.40;;;;;;;26.02;36.70;100002.34;5103558;28;20384;-73
2022/06/21 08:24:52;;;;;;;12.75;2.90;;;;;;;26.55;36.45;99995.47;5103588;28;20024;-76
2022/06/21 08:27:34;;;;;;;9.52;2.85;;;;;;;26.96;34.97;99995.59;5103143;28;20024;-75
2022/06/21 08:29:59;;;;;;;;;;;;;;;26.91;34.49;100004.00;5103993;28;20031;-75
2022/06/21 08:32:35;;;;;;;9.70;2.87;;;;;;;27.29;34.66;99996.38;5103489;28;19912;-75
2022/06/21 08:35:16;;;;;;;10.75;3.13;;;;;;;27.47;33.68;99993.09;5103407;28;20476;-76
2022/06/21 08:37:58;;;;;;;18.15;3.45;;;;;;;27.31;33.95;99986.44;5103459;28;20087;-76
2022/06/21 08:40:57;;;;;;;15.63;3.15;;;;;;;27.37;33.73;99997.53;5103435;28;20119;-77
2022/06/21 08:43:52;;;;;;;13.27;3.17;;;;;;;27.81;33.49;100008.81;5071442;28;20036;-74
2022/06/21 08:46:39;;;;;;;8.95;2.72;;;;;;;27.74;32.29;100007.69;5085880;28;20036;-75
2022/06/21 08:49:18;;;;;;;11.02;2.97;;;;;;;27.05;33.49;100002.84;5103152;28;20020;-76
2022/06/21 08:52:13;;;;;;;11.35;3.15;;;;;;;27.31;33.74;100014.91;5103198;28;20040;-76
2022/06/21 08:54:41;;;;;;;12.48;2.90;;;;;;;27.71;33.28;100008.81;5095541;28;20093;-76
2022/06/21 08:57:14;;;;;;;12.32;2.80;;;;;;;28.08;32.69;100004.69;5102964;28;20020;-74
2022/06/21 09:00:02;;;;;;;12.93;3.20;;;;;;;28.14;32.60;100000.63;5084888;28;20052;-76
2022/06/21 09:02:49;;;;;;;13.98;3.17;;;;;;;28.08;31.89;100004.69;5102992;28;20032;-76
2022/06/21 09:05:33;;;;;;;10.25;3.00;;;;;;;27.74;31.87;100002.34;5107152;28;20285;-76
2022/06/21 09:08:22;;;;;;;14.50;3.45;;;;;;;27.91;32.43;99997.38;5106878;28;20020;-76
2022/06/21 09:11:02;;;;;;;11.48;3.28;;;;;;;28.09;32.33;100002.88;5106772;28;20081;-75
2022/06/21 09:13:59;;;;;;;11.90;2.75;;;;;;;28.47;32.20;100004.91;5107030;28;20030;-76
2022/06/21 09:16:34;;;;;;;13.65;2.70;;;;;;;28.59;31.32;99995.78;5090527;28;20061;-76
2022/06/21 09:19:28;;;;;;;12.45;2.85;;;;;;;28.48;31.57;99986.09;5106750;28;20020;-76
2022/06/21 09:22:15;;;;;;;12.13;3.20;;;;;;;28.54;31.47;99992.69;5106858;28;20027;-76
2022/06/21 09:24:51;;;;;;;12.35;2.90;;;;;;;28.39;31.38;99997.59;5106860;28;20036;-77
2022/06/21 09:27:23;;;;;;;7.93;2.63;;;;;;;28.62;30.77;100003.50;5106422;28;20043;-76
2022/06/21 09:30:08;;;;;;;14.20;2.53;;;;;;;28.57;30.22;99989.72;5106550;28;20028;-76
2022/06/21 09:32:57;;;;;;;9.40;2.92;;;;;;;28.74;30.61;100006.03;5106261;28;20154;-75
2022/06/21 09:35:31;;;;;;;8.93;3.13;;;;;;;29.01;30.86;100007.16;5105757;28;20047;-77
2022/06/21 09:38:15;;;;;;;12.25;3.30;;;;;;;29.13;30.17;100006.00;5106426;28;20475;-77
2022/06/21 09:40:47;;;;;;;10.98;2.95;;;;;;;28.80;29.59;100011.63;5088073;28;20112;-76
2022/06/21 09:43:42;;;;;;;12.60;3.00;;;;;;;28.33;31.03;100007.00;5106126;28;20032;-75
2022/06/21 09:46:18;;;;;;;9.32;2.35;;;;;;;28.47;30.12;100020.94;5070456;28;20060;-75
2022/06/21 09:48:50;;;;;;;12.52;3.00;;;;;;;28.29;30.27;100013.56;5105841;28;20020;-74
2022/06/21 09:51:18;;;;;;;;;;;;;;;28.17;31.33;100016.38;5106641;28;20247;-75
2022/06/21 09:54:19;;;;;;;8.77;2.40;;;;;;;28.55;29.55;100018.38;5106294;28;19978;-75
2022/06/21 09:57:35;;;;;;;9.83;3.03;;;;;;;28.62;29.81;100016.84;5106100;28;20030;-76
2022/06/21 10:00:05;;;;;;;8.70;2.40;;;;;;;28.52;29.67;100013.31;5023345;28;20104;-76
2022/06/21 10:02:52;;;;;;;12.68;2.75;;;;;;;28.36;29.19;100022.72;5023105;28;20056;-74
2022/06/21 10:05:31;;;;;;;9.80;2.22;;;;;;;27.99;29.70;100016.19;5023227;28;20037;-75
2022/06/21 10:08:34;;;;;;;11.23;2.53;;;;;;;27.54;30.59;100012.91;5023180;28;20037;-74
2022/06/21 10:11:23;;;;;;;11.05;3.08;;;;;;;27.35;30.88;100011.84;5022634;28;20038;-77
2022/06/21 10:13:57;;;;;;;9.88;2.83;;;;;;;27.66;30.74;100016.34;5023143;28;20034;-77
2022/06/21 10:16:47;;;;;;;8.95;2.60;;;;;;;27.59;31.08;100009.84;5022067;28;20058;-77
2022/06/21 10:19:23;;;;;;;11.65;2.97;;;;;;;27.76;31.07;100010.22;5022973;28;20050;-78
2022/06/21 10:22:14;;;;;;;8.90;2.80;;;;;;;27.85;31.11;100022.75;5022473;28;20064;-73
2022/06/21 10:25:08;;;;;;;8.47;2.87;;;;;;;27.69;30.95;100002.75;5023105;28;20137;-72
2022/06/21 10:27:53;;;;;;;8.68;2.40;;;;;;;27.67;31.50;100006.56;5022526;28;20157;-73
2022/06/21 10:30:39;;;;;;;10.88;2.50;;;;;;;27.78;30.82;100016.28;5022469;28;20033;-72
2022/06/21 10:33:10;;;;;;;15.05;3.28;;;;;;;27.58;31.70;100013.50;5022578;28;20029;-72
2022/06/21 10:35:45;;;;;;;14.18;3.08;;;;;;;27.61;32.18;100018.56;5062128;28;20036;-72
2022/06/21 10:38:27;;;;;;;22.00;3.85;;;;;;;27.64;32.29;100015.63;5105077;28;20156;-72
2022/06/21 10:40:55;;;;;;;;;;;;;;;27.32;32.54;100019.25;5105384;28;20016;-72
2022/06/21 10:43:26;;;;;;;8.80;2.70;;;;;;;27.16;33.27;100020.56;5105196;28;20370;-72
2022/06/21 10:46:44;;;;;;;13.05;2.90;;;;;;;27.18;33.62;100023.09;5087017;28;20111;-73
2022/06/21 10:49:46;;;;;;;10.73;2.72;;;;;;;27.20;33.98;100018.50;5100185;28;20028;-73
2022/06/21 10:52:38;;;;;;;19.63;3.80;;;;;;;26.86;34.41;100011.50;5104954;28;20028;-73
2022/06/21 10:57:09;;;;;;;11.02;2.55;;;;;;;26.72;34.19;100023.31;5086685;28;20038;-72
2022/06/21 10:58:40;;;;;;;11.07;2.50;;;;;;;26.09;35.13;100030.13;5002047;28;20042;-72
2022/06/21 11:01:21;;;;;;;15.68;3.17;;;;;;;25.41;36.09;100025.66;5002486;28;20061;-72
2022/06/21 11:03:49;;;;;;;17.63;3.03;;;;;;;24.75;37.80;100023.41;5002614;28;20037;-72
2022/06/21 11:06:24;;;;;;;11.73;2.70;;;;;;;24.16;39.09;100026.84;5002561;28;20030;-72
2022/06/21 11:09:05;;;;;;;16.45;3.95;;;;;;;23.73;40.01;100032.41;5002328;28;20050;-72
2022/06/21 11:11:39;;;;;;;11.02;3.08;;;;;;;23.38;40.54;100027.75;5002201;28;20034;-71
2022/06/21 11:14:44;;;;;;;11.65;3.30;;;;;;;22.73;42.46;100040.88;5002173;28;20142;-71
2022/06/21 11:17:32;;;;;;;13.48;3.40;;;;;;;22.27;43.09;100037.56;5002219;28;20018;-70
2022/06/21 11:20:03;;;;;;;13.38;3.20;;;;;;;21.81;43.89;100033.38;5002275;28;20029;-71
2022/06/21 11:22:40;;;;;;;15.90;3.50;;;;;;;21.45;44.55;100040.78;5002216;28;20066;-71
2022/06/21 11:25:27;;;;;;;17.70;3.90;;;;;;;21.32;45.40;100035.41;5002228;28;20034;-71
2022/06/21 11:28:11;;;;;;;9.27;2.63;;;;;;;21.24;45.53;100036.72;5001661;28;20034;-71
2022/06/21 11:31:10;;;;;;;13.80;3.50;;;;;;;21.12;46.16;100034.81;5001756;28;20030;-71
2022/06/21 11:33:51;;;;;;;11.30;2.50;;;;;;;20.93;46.11;100039.38;5037694;28;20365;-74
2022/06/21 11:36:32;;;;;;;9.32;2.97;;;;;;;20.81;46.29;100035.59;5104310;28;20034;-75
2022/06/21 11:39:28;;;;;;;11.93;3.20;;;;;;;20.71;46.87;100041.50;5104123;28;20028;-75
2022/06/21 11:42:25;;;;;;;9.40;3.30;;;;;;;20.75;47.55;100043.03;5103909;28;20468;-76
2022/06/21 11:45:14;;;;;;;9.88;3.00;;;;;;;21.07;47.17;100023.66;5104006;28;20042;-76
2022/06/21 11:48:13;;;;;;;10.95;2.80;;;;;;;21.19;46.47;100022.94;5104132;28;20016;-75
2022/06/21 11:50:51;;;;;;;18.92;3.25;;;;;;;21.16;46.30;100036.31;5104020;28;20020;-75
2022/06/21 11:53:39;;;;;;;14.13;2.80;;;;;;;21.02;46.81;100037.97;5104141;28;20024;-77
2022/06/21 11:56:17;;;;;;;9.65;3.00;;;;;;;20.93;46.56;100041.13;5074648;28;20036;-74
2022/06/21 11:58:51;;;;;;;12.07;2.55;;;;;;;20.92;47.20;100032.41;5103533;28;20032;-73
2022/06/21 12:01:25;;;;;;;8.75;2.70;;;;;;;20.74;46.51;100034.28;5103816;28;20032;-73
2022/06/21 12:04:13;;;;;;;9.57;3.30;;;;;;;20.30;47.93;100041.13;5103744;28;20038;-74
2022/06/21 12:06:48;;;;;;;12.07;3.00;;;;;;;20.33;48.36;100037.44;5103756;28;20024;-74
2022/06/21 12:09:39;;;;;;;10.82;2.47;;;;;;;20.51;48.37;100041.69;5103639;28;20027;-75
2022/06/21 12:12:19;;;;;;;11.35;3.10;;;;;;;20.64;47.50;100044.47;5092032;28;20040;-74
2022/06/21 12:14:59;;;;;;;8.52;2.30;;;;;;;20.53;47.96;100045.09;5103793;28;20122;-74
2022/06/21 12:17:41;;;;;;;9.93;2.90;;;;;;;20.59;48.09;100043.88;5103320;28;20111;-72
2022/06/21 12:20:16;;;;;;;12.63;2.83;;;;;;;20.57;47.93;100045.78;5103684;28;20074;-74